Aérodrome :
LOGIN :

S'inscrire | Disclaimer

   EN    FR    IT 

 










Légende :    VFR   VFR Marginal   IFR   IFR Intensif   IFR Très Intensif
Visi : 
Plafond : 
>= 8 km
>= 3000ft
5 à 8 km
1000 à 3000 ft
1500m à 5 km
500 à 1000 ft
800 à 1500m
200 à 500 ft
< 800m
< 200 ft
Symboles :   Orages  Brouillard  Fortes neiges  Fortes précipitations  Vent > 20 kt
SIGMETs :   Divers  Orages  Givrage  Turbulence  Onde Orograph.  Cendres Volcan.







- Altitude de l'aérodrome : 909 ft
- Code IATA : KSF


EDVK - Kassel Calden

DERNIER METAR :
  • 261720Z 29012KT 9999 VCSH SCT048CB 07/M02 Q1011

METARs EXPIRÉS :
  • 261650Z 29008KT 9999 VCSH SCT048CB 09/M03 Q1011
  • 261620Z 29008KT 9999 VCSH SCT048CB 09/M03 Q1011
  • 261550Z 03005KT 9999 VCSH SCT048CB 09/M03 Q1011
  • 261520Z VRB03KT 9999 VCSH SCT040TCU 10/M04 Q1011
  • 261450Z 27006KT 240V310 9999 VCSH SCT040TCU 10/M03 Q1011

TAF TAF EDVK
Valide du 26 à 18h jusqu'au 27 à 01h UTC


261700Z 2618/2701 30004KT 9999 SCT030
Pas de NOTAMs connus pour ce terrain.



MET'MAP, la Météo Aéronautique d'un coup d'oeil ! - Copyright ORBIFLY Décembre 2007 - Disclaimer

ORBIFLY MET'MAP TEAM :

Programmation & Développement : Alexandra Zaïnal
Conception & Développement : Baudouin d'Aumeries
Co-Programmation & Développement : Marc-Olivier Méhu
Soutien technique & logistique : Manuel Goepfert

Contact : metmap@orbifly.com




SOURCES & CREDITS :

   NOAA